createdAt,value
2022-09-28T00:03:06.836Z,13.50
2022-09-28T00:08:09.324Z,13.50
2022-09-28T00:13:11.405Z,13.50
2022-09-28T00:18:13.481Z,13.50
2022-09-28T00:33:20.575Z,13.50
2022-09-28T00:38:25.631Z,13.50
2022-09-28T00:43:28.047Z,13.40
2022-09-28T00:48:36.310Z,13.50
2022-09-28T00:53:40.899Z,13.60
2022-09-28T00:58:47.523Z,13.50
2022-09-28T01:03:49.560Z,13.60
2022-09-28T01:08:55.959Z,13.60
2022-09-28T01:13:58.747Z,13.20
2022-09-28T01:19:33.507Z,13.50
2022-09-28T01:24:47.447Z,13.60
2022-09-28T01:30:05.589Z,13.60
2022-09-28T01:35:18.522Z,13.60
2022-09-28T01:40:23.614Z,13.50
2022-09-28T01:45:38.417Z,13.60
2022-09-28T01:50:43.642Z,13.60
2022-09-28T01:55:52.514Z,13.60
2022-09-28T02:01:01.072Z,13.70
2022-09-28T02:06:10.676Z,13.40
2022-09-28T02:11:14.151Z,13.70
2022-09-28T02:16:45.468Z,13.70
2022-09-28T02:22:13.252Z,13.70
2022-09-28T02:27:53.919Z,13.50
2022-09-28T02:33:02.547Z,13.70
2022-09-28T02:38:05.250Z,13.70
2022-09-28T02:43:24.615Z,13.70
2022-09-28T02:48:55.721Z,13.70
2022-09-28T02:54:29.917Z,13.70
2022-09-28T02:59:53.933Z,13.70
2022-09-28T03:05:13.981Z,13.70
2022-09-28T03:10:44.322Z,13.70
2022-09-28T03:15:48.972Z,13.80
2022-09-28T03:20:52.279Z,13.70
2022-09-28T03:25:54.732Z,13.80
2022-09-28T03:30:57.303Z,13.70
2022-09-28T03:35:59.376Z,13.70
2022-09-28T03:41:01.610Z,13.70
2022-09-28T03:46:05.551Z,13.60
2022-09-28T03:51:11.310Z,13.60
2022-09-28T03:56:15.552Z,13.50
2022-09-28T04:01:18.238Z,13.60
2022-09-28T04:06:20.798Z,13.50
2022-09-28T04:11:24.055Z,13.50
2022-09-28T04:16:26.612Z,13.50
2022-09-28T04:21:29.311Z,13.40
2022-09-28T04:26:31.917Z,13.30
2022-09-28T04:31:45.981Z,13.50
2022-09-28T04:36:49.887Z,13.30
2022-09-28T04:41:52.181Z,13.20
2022-09-28T04:46:56.215Z,13.20
2022-09-28T04:52:06.796Z,13.20
2022-09-28T04:57:08.960Z,13.10
2022-09-28T05:02:13.821Z,13.20
2022-09-28T05:07:17.157Z,13.10
2022-09-28T05:12:19.257Z,13.10
2022-09-28T05:17:23.366Z,13.00
2022-09-28T05:22:28.132Z,13.00
2022-09-28T05:27:30.523Z,13.00
2022-09-28T05:37:36.542Z,13.00
2022-09-28T05:42:40.484Z,12.90
2022-09-28T05:47:45.946Z,12.90
2022-09-28T05:52:58.463Z,12.90
2022-09-28T05:58:02.037Z,12.80
2022-09-28T06:03:11.016Z,12.90
2022-09-28T06:08:13.949Z,12.90
2022-09-28T06:13:16.649Z,12.60
2022-09-28T06:18:19.056Z,13.00
2022-09-28T06:23:21.820Z,13.10
2022-09-28T06:28:24.744Z,13.40
2022-09-28T06:33:26.863Z,13.50
2022-09-28T06:38:29.065Z,13.60
2022-09-28T06:43:34.365Z,13.70
2022-09-28T06:48:39.640Z,13.70
2022-09-28T06:53:43.518Z,14.00
2022-09-28T06:58:45.551Z,13.80
2022-09-28T07:03:49.684Z,13.90
2022-09-28T07:09:03.824Z,13.90
2022-09-28T07:14:28.294Z,14.00
2022-09-28T07:19:36.575Z,14.10
2022-09-28T07:24:38.661Z,14.30
2022-09-28T07:29:44.856Z,14.20
2022-09-28T07:34:48.643Z,14.50
2022-09-28T07:40:10.552Z,14.50
2022-09-28T07:45:13.012Z,15.00
2022-09-28T07:50:15.304Z,14.80
2022-09-28T07:55:17.872Z,14.80
2022-09-28T08:00:21.084Z,14.80
2022-09-28T08:05:23.051Z,15.00
2022-09-28T08:10:26.497Z,15.00
2022-09-28T08:15:36.872Z,15.20
2022-09-28T08:20:59.149Z,14.90
2022-09-28T08:26:01.949Z,15.10
2022-09-28T08:31:07.167Z,15.20
2022-09-28T08:36:11.493Z,15.30
2022-09-28T08:41:45.000Z,15.30
2022-09-28T08:46:51.319Z,15.40
2022-09-28T08:52:05.683Z,15.50
2022-09-28T08:57:29.924Z,15.80
2022-09-28T09:02:36.104Z,15.80
2022-09-28T09:08:02.383Z,16.00
2022-09-28T09:13:28.902Z,16.00
2022-09-28T09:18:41.423Z,16.00
2022-09-28T09:24:01.492Z,16.10
2022-09-28T09:29:18.310Z,16.50
2022-09-28T09:34:23.943Z,16.20
2022-09-28T09:39:59.426Z,16.60
2022-09-28T09:45:06.915Z,16.50
2022-09-28T09:50:39.318Z,16.60
2022-09-28T09:55:48.272Z,16.70
2022-09-28T10:00:54.119Z,16.70
2022-09-28T10:06:06.927Z,16.70
2022-09-28T10:11:21.880Z,16.70
2022-09-28T10:16:24.903Z,17.00
2022-09-28T10:21:29.514Z,16.80
2022-09-28T10:26:41.825Z,17.10
2022-09-28T10:31:50.322Z,17.30
2022-09-28T10:37:01.173Z,17.40
2022-09-28T10:42:08.617Z,17.50
2022-09-28T10:47:16.814Z,17.70
2022-09-28T10:52:45.109Z,17.70
2022-09-28T10:57:50.364Z,18.10
2022-09-28T11:02:52.882Z,18.20
2022-09-28T11:08:02.623Z,18.30
2022-09-28T11:13:09.406Z,18.30
2022-09-28T11:24:01.144Z,18.10
2022-09-28T11:29:04.758Z,18.00
2022-09-28T11:34:31.413Z,18.00
2022-09-28T11:40:15.598Z,18.10
2022-09-28T11:45:36.805Z,18.60
2022-09-28T11:50:57.866Z,18.60
2022-09-28T11:56:09.189Z,19.10
2022-09-28T12:01:22.207Z,19.20
2022-09-28T12:06:40.770Z,19.20
2022-09-28T12:11:48.660Z,19.20
2022-09-28T12:17:20.506Z,19.00
2022-09-28T12:22:36.248Z,18.90
2022-09-28T12:27:45.402Z,18.90
2022-09-28T12:32:56.070Z,19.00
2022-09-28T12:38:43.319Z,19.00
2022-09-28T12:43:55.050Z,19.20
2022-09-28T12:55:06.608Z,19.30
2022-09-28T13:00:15.990Z,19.30
2022-09-28T13:05:37.466Z,19.40
2022-09-28T13:11:15.650Z,19.50
2022-09-28T13:16:31.813Z,19.70
2022-09-28T13:22:04.955Z,20.00
2022-09-28T13:27:14.260Z,19.90
2022-09-28T13:32:17.339Z,20.10
2022-09-28T13:37:24.108Z,19.70
2022-09-28T13:42:41.670Z,19.70
2022-09-28T13:47:56.664Z,19.90
2022-09-28T13:53:19.602Z,20.20
2022-09-28T13:58:27.088Z,20.20
2022-09-28T14:04:01.440Z,20.20
2022-09-28T14:09:08.976Z,20.20
2022-09-28T14:14:11.774Z,19.90
2022-09-28T14:19:13.976Z,20.30
2022-09-28T14:24:37.222Z,21.10
2022-09-28T14:29:39.507Z,23.20
2022-09-28T14:34:44.408Z,25.10
2022-09-28T14:40:26.245Z,25.80
2022-09-28T14:45:38.184Z,26.00
2022-09-28T14:50:40.607Z,27.20
2022-09-28T14:55:50.540Z,28.10
2022-09-28T15:00:59.861Z,28.50
2022-09-28T15:06:01.930Z,28.50
2022-09-28T15:11:04.442Z,28.90
2022-09-28T15:16:10.298Z,29.20
2022-09-28T15:21:13.506Z,29.50
2022-09-28T15:26:33.052Z,29.40
2022-09-28T15:31:36.011Z,28.90
2022-09-28T15:36:44.171Z,27.40
2022-09-28T15:41:47.841Z,26.80
2022-09-28T15:46:53.559Z,25.00
2022-09-28T15:51:55.996Z,25.00
2022-09-28T15:57:02.292Z,23.70
2022-09-28T16:02:18.402Z,23.20
2022-09-28T16:07:23.186Z,22.70
2022-09-28T16:12:37.185Z,21.70
2022-09-28T16:17:39.532Z,21.00
2022-09-28T16:22:43.443Z,20.60
2022-09-28T16:27:45.645Z,20.20
2022-09-28T16:32:52.691Z,19.90
2022-09-28T16:37:59.685Z,19.90
2022-09-28T16:43:05.679Z,19.50
2022-09-28T16:48:13.440Z,19.40
2022-09-28T16:53:35.965Z,18.80
2022-09-28T16:58:38.853Z,18.30
2022-09-28T17:03:46.544Z,18.20
2022-09-28T17:08:48.604Z,18.20
2022-09-28T17:13:51.617Z,17.80
2022-09-28T17:18:53.653Z,17.50
2022-09-28T17:28:59.362Z,17.50
2022-09-28T17:34:01.589Z,17.20
2022-09-28T17:39:05.055Z,17.20
2022-09-28T17:44:07.493Z,17.00
2022-09-28T17:49:11.967Z,17.00
2022-09-28T17:54:16.649Z,16.80
2022-09-28T17:59:19.189Z,16.60
2022-09-28T18:04:47.178Z,16.50
2022-09-28T18:09:43.328Z,16.50
2022-09-28T18:14:46.918Z,16.40
2022-09-28T18:19:48.998Z,16.30
2022-09-28T18:24:51.068Z,16.30
2022-09-28T18:29:53.075Z,16.10
2022-09-28T18:34:55.105Z,16.00
2022-09-28T18:39:57.228Z,15.90
2022-09-28T18:44:59.285Z,15.80
2022-09-28T18:50:01.397Z,15.80
2022-09-28T18:55:05.167Z,15.70
2022-09-28T19:00:11.148Z,15.70
2022-09-28T19:05:13.279Z,15.70
2022-09-28T19:10:15.372Z,15.60
2022-09-28T19:20:20.932Z,15.40
2022-09-28T19:25:22.965Z,15.20
2022-09-28T19:30:24.974Z,15.30
2022-09-28T19:35:27.017Z,15.20
2022-09-28T19:40:29.130Z,15.20
2022-09-28T19:45:31.231Z,15.30
2022-09-28T19:50:33.339Z,15.00
2022-09-28T19:55:36.910Z,14.90
2022-09-28T20:00:38.992Z,15.10
2022-09-28T20:05:42.269Z,14.80
2022-09-28T20:10:52.400Z,14.80
2022-09-28T20:15:56.237Z,14.70
2022-09-28T20:21:03.555Z,14.60
2022-09-28T20:26:07.487Z,14.60
2022-09-28T20:31:16.118Z,14.50
2022-09-28T20:36:23.477Z,14.40
2022-09-28T20:41:25.604Z,14.30
2022-09-28T20:46:27.940Z,14.10
2022-09-28T20:51:30.166Z,14.10
2022-09-28T20:56:39.699Z,14.10
2022-09-28T21:01:41.874Z,13.90
2022-09-28T21:06:44.279Z,13.90
2022-09-28T21:11:47.855Z,13.90
2022-09-28T21:16:50.531Z,14.00
2022-09-28T21:21:52.620Z,13.90
2022-09-28T21:26:55.448Z,13.90
2022-09-28T21:31:57.378Z,13.90
2022-09-28T21:36:59.393Z,14.00
2022-09-28T21:42:01.509Z,13.90
2022-09-28T21:47:03.594Z,14.00
2022-09-28T21:52:05.651Z,13.90
2022-09-28T21:57:08.803Z,13.80
2022-09-28T22:02:10.814Z,13.80
2022-09-28T22:07:12.828Z,13.90
2022-09-28T22:12:15.804Z,13.60
2022-09-28T22:17:17.822Z,13.40
2022-09-28T22:22:19.909Z,13.30
2022-09-28T22:27:21.927Z,13.30
2022-09-28T22:32:24.040Z,12.70
2022-09-28T22:37:27.985Z,13.00
2022-09-28T22:42:30.260Z,13.00
2022-09-28T22:47:32.261Z,13.00
2022-09-28T22:52:34.275Z,12.40
2022-09-28T22:57:36.342Z,12.80
2022-09-28T23:02:38.381Z,12.80
2022-09-28T23:07:40.427Z,12.90
2022-09-28T23:12:42.465Z,12.80
2022-09-28T23:17:44.503Z,12.80
2022-09-28T23:22:47.813Z,12.80
2022-09-28T23:27:50.661Z,12.70
2022-09-28T23:32:53.282Z,12.70
2022-09-28T23:37:55.377Z,12.60
2022-09-28T23:42:57.388Z,12.50
2022-09-28T23:47:59.427Z,12.40
2022-09-28T23:53:01.601Z,12.30
2022-09-28T23:58:03.916Z,12.30
